createdAt,value
2023-03-28T00:00:40.406Z,8.20
2023-03-28T00:01:40.370Z,8.09
2023-03-28T00:02:40.389Z,8.20
2023-03-28T00:03:40.644Z,8.16
2023-03-28T00:04:40.301Z,8.23
2023-03-28T00:05:40.379Z,8.31
2023-03-28T00:06:40.231Z,8.27
2023-03-28T00:07:40.225Z,8.24
2023-03-28T00:08:40.253Z,8.28
2023-03-28T00:09:40.152Z,8.23
2023-03-28T00:10:40.130Z,8.24
2023-03-28T00:11:40.114Z,8.31
2023-03-28T00:12:40.237Z,8.34
2023-03-28T00:13:40.382Z,8.24
2023-03-28T00:14:40.468Z,8.24
2023-03-28T00:15:40.600Z,8.26
2023-03-28T00:16:40.707Z,8.26
2023-03-28T00:17:40.842Z,8.37
2023-03-28T00:18:39.932Z,8.30
2023-03-28T00:19:39.886Z,8.31
2023-03-28T00:20:39.982Z,8.26
2023-03-28T00:21:39.839Z,8.36
2023-03-28T00:22:39.814Z,8.19
2023-03-28T00:23:39.807Z,8.24
2023-03-28T00:24:39.830Z,8.28
2023-03-28T00:25:39.727Z,8.28
2023-03-28T00:26:39.722Z,8.31
2023-03-28T00:27:39.689Z,8.23
2023-03-28T00:28:39.655Z,8.19
2023-03-28T00:29:39.626Z,8.26
2023-03-28T00:30:39.602Z,8.33
2023-03-28T00:31:39.637Z,8.27
2023-03-28T00:32:39.688Z,8.27
2023-03-28T00:33:39.797Z,8.28
2023-03-28T00:34:39.921Z,8.28
2023-03-28T00:35:40.125Z,8.30
2023-03-28T00:36:40.209Z,8.36
2023-03-28T00:37:40.309Z,8.36
2023-03-28T00:38:39.393Z,8.42
2023-03-28T00:39:39.373Z,8.33
2023-03-28T00:40:39.335Z,8.41
2023-03-28T00:41:39.317Z,8.36
2023-03-28T00:42:39.304Z,8.38
2023-03-28T00:43:39.265Z,8.37
2023-03-28T00:44:39.255Z,8.42
2023-03-28T00:45:39.223Z,8.42
2023-03-28T00:46:39.253Z,8.42
2023-03-28T00:47:39.197Z,8.42
2023-03-28T00:48:39.156Z,8.36
2023-03-28T00:49:39.099Z,8.42
2023-03-28T00:50:39.070Z,8.38
2023-03-28T00:51:39.045Z,8.36
2023-03-28T00:52:39.176Z,8.41
2023-03-28T00:53:39.293Z,8.41
2023-03-28T00:54:39.407Z,8.45
2023-03-28T00:55:39.554Z,8.37
2023-03-28T00:56:39.720Z,8.42
2023-03-28T00:57:39.778Z,8.42
2023-03-28T00:58:38.861Z,8.48
2023-03-28T00:59:38.832Z,8.37
2023-03-28T01:00:38.845Z,8.48
2023-03-28T01:01:38.831Z,8.48
2023-03-28T01:02:38.789Z,8.52
2023-03-28T01:03:38.803Z,8.48
2023-03-28T01:04:38.693Z,8.48
2023-03-28T01:05:38.674Z,8.51
2023-03-28T01:06:38.660Z,8.51
2023-03-28T01:07:38.646Z,8.46
2023-03-28T01:08:38.597Z,8.49
2023-03-28T01:09:38.578Z,8.46
2023-03-28T01:10:38.547Z,8.52
2023-03-28T01:11:38.517Z,8.49
2023-03-28T01:12:38.642Z,8.49
2023-03-28T01:13:38.809Z,8.58
2023-03-28T01:14:38.935Z,8.56
2023-03-28T01:15:39.027Z,8.63
2023-03-28T01:16:39.235Z,8.58
2023-03-28T01:17:39.279Z,8.60
2023-03-28T01:18:38.329Z,8.60
2023-03-28T01:19:38.318Z,8.64
2023-03-28T01:20:38.280Z,8.66
2023-03-28T01:21:38.235Z,8.69
2023-03-28T01:22:38.242Z,8.64
2023-03-28T01:23:38.189Z,8.66
2023-03-28T01:24:38.170Z,8.73
2023-03-28T01:25:38.173Z,8.69
2023-03-28T01:26:38.113Z,8.73
2023-03-28T01:27:38.102Z,8.69
2023-03-28T01:28:38.067Z,8.73
2023-03-28T01:29:38.028Z,8.70
2023-03-28T01:30:38.009Z,8.70
2023-03-28T01:31:38.037Z,8.69
2023-03-28T01:32:38.119Z,8.74
2023-03-28T01:33:38.224Z,8.63
2023-03-28T01:34:38.317Z,8.67
2023-03-28T01:35:38.471Z,8.63
2023-03-28T01:36:38.562Z,8.73
2023-03-28T01:37:38.693Z,8.67
2023-03-28T01:38:37.823Z,8.66
2023-03-28T01:39:37.763Z,8.63
2023-03-28T01:40:37.748Z,8.66
2023-03-28T01:41:37.737Z,8.64
2023-03-28T01:42:37.686Z,8.67
2023-03-28T01:43:37.682Z,8.64
2023-03-28T01:44:37.684Z,8.69
2023-03-28T01:45:37.667Z,8.69
2023-03-28T01:46:37.586Z,8.70
2023-03-28T01:47:37.610Z,8.70
2023-03-28T01:48:37.580Z,8.67
2023-03-28T01:49:37.499Z,8.69
2023-03-28T01:50:37.500Z,8.67
2023-03-28T01:51:37.451Z,8.67
2023-03-28T01:52:37.550Z,8.69
2023-03-28T01:53:37.666Z,8.70
2023-03-28T01:54:37.861Z,8.66
2023-03-28T01:55:42.278Z,8.70
2023-03-28T01:56:38.180Z,8.67
2023-03-28T01:57:38.221Z,8.67
2023-03-28T01:58:37.264Z,8.69
2023-03-28T01:59:37.343Z,8.66
2023-03-28T02:00:37.256Z,8.74
2023-03-28T02:01:37.233Z,8.73
2023-03-28T02:02:37.297Z,8.73
2023-03-28T02:03:37.145Z,8.76
2023-03-28T02:04:37.109Z,8.67
2023-03-28T02:05:37.087Z,8.69
2023-03-28T02:06:37.115Z,8.64
2023-03-28T02:07:37.018Z,8.66
2023-03-28T02:08:37.010Z,8.71
2023-03-28T02:09:37.003Z,8.66
2023-03-28T02:10:36.954Z,8.74
2023-03-28T02:11:36.931Z,8.63
2023-03-28T02:12:37.039Z,8.71
2023-03-28T02:13:37.145Z,8.64
2023-03-28T02:14:37.274Z,8.67
2023-03-28T02:15:37.395Z,8.70
2023-03-28T02:16:37.606Z,8.66
2023-03-28T02:17:37.663Z,8.70
2023-03-28T02:18:36.771Z,8.66
2023-03-28T02:19:36.714Z,8.69
2023-03-28T02:20:36.693Z,8.73
2023-03-28T02:21:36.679Z,8.64
2023-03-28T02:22:36.641Z,8.70
2023-03-28T02:23:36.616Z,8.70
2023-03-28T02:24:36.597Z,8.69
2023-03-28T02:25:36.582Z,8.60
2023-03-28T02:26:36.535Z,8.61
2023-03-28T02:27:36.514Z,8.71
2023-03-28T02:28:36.481Z,8.69
2023-03-28T02:29:36.453Z,8.63
2023-03-28T02:30:36.449Z,8.67
2023-03-28T02:31:36.487Z,8.70
2023-03-28T02:32:36.640Z,8.64
2023-03-28T02:33:36.617Z,8.63
2023-03-28T02:34:36.709Z,8.63
2023-03-28T02:35:36.854Z,8.58
2023-03-28T02:36:36.945Z,8.64
2023-03-28T02:37:37.114Z,8.60
2023-03-28T02:38:37.210Z,8.64
2023-03-28T02:39:36.281Z,8.61
2023-03-28T02:40:36.194Z,8.64
2023-03-28T02:41:36.151Z,8.61
2023-03-28T02:42:36.118Z,8.61
2023-03-28T02:43:36.173Z,8.64
2023-03-28T02:44:36.065Z,8.51
2023-03-28T02:45:36.059Z,8.63
2023-03-28T02:46:36.061Z,8.64
2023-03-28T02:47:36.043Z,8.60
2023-03-28T02:48:35.958Z,8.66
2023-03-28T02:49:47.633Z,8.67
2023-03-28T02:50:35.914Z,8.67
2023-03-28T02:51:35.880Z,8.61
2023-03-28T02:52:35.990Z,8.70
2023-03-28T02:53:36.125Z,8.70
2023-03-28T02:54:36.246Z,8.69
2023-03-28T02:55:36.394Z,8.69
2023-03-28T02:56:36.544Z,8.66
2023-03-28T02:57:36.638Z,8.64
2023-03-28T02:58:36.683Z,8.64
2023-03-28T02:59:35.696Z,8.63
2023-03-28T03:00:35.641Z,8.63
2023-03-28T03:01:35.666Z,8.60
2023-03-28T03:02:35.646Z,8.55
2023-03-28T03:03:35.592Z,8.60
2023-03-28T03:04:35.560Z,8.49
2023-03-28T03:05:35.546Z,8.46
2023-03-28T03:06:35.551Z,8.55
2023-03-28T03:07:35.462Z,8.61
2023-03-28T03:08:35.489Z,8.58
2023-03-28T03:09:35.433Z,8.63
2023-03-28T03:10:35.384Z,8.64
2023-03-28T03:11:35.388Z,8.69
2023-03-28T03:12:35.444Z,8.69
2023-03-28T03:13:35.596Z,8.70
2023-03-28T03:14:35.698Z,8.64
2023-03-28T03:15:35.925Z,8.64
2023-03-28T03:16:36.035Z,8.73
2023-03-28T03:17:36.097Z,8.74
2023-03-28T03:18:35.174Z,8.69
2023-03-28T03:19:35.149Z,8.64
2023-03-28T03:20:35.153Z,8.66
2023-03-28T03:21:35.086Z,8.56
2023-03-28T03:22:35.081Z,8.46
2023-03-28T03:23:35.044Z,8.58
2023-03-28T03:24:35.081Z,8.52
2023-03-28T03:25:35.030Z,8.49
2023-03-28T03:26:34.976Z,8.51
2023-03-28T03:27:34.925Z,8.49
2023-03-28T03:28:34.909Z,8.44
2023-03-28T03:29:38.861Z,8.42
2023-03-28T03:30:34.869Z,8.41
2023-03-28T03:31:34.907Z,8.42
2023-03-28T03:32:34.933Z,8.37
2023-03-28T03:33:35.017Z,8.33
2023-03-28T03:34:35.131Z,8.34
2023-03-28T03:35:35.283Z,8.42
2023-03-28T03:36:35.345Z,8.42
2023-03-28T03:37:35.466Z,8.34
2023-03-28T03:38:35.597Z,8.37
2023-03-28T03:39:34.653Z,8.38
2023-03-28T03:40:34.607Z,8.42
2023-03-28T03:41:34.561Z,8.36
2023-03-28T03:42:34.561Z,8.42
2023-03-28T03:43:34.520Z,8.38
2023-03-28T03:44:34.486Z,8.34
2023-03-28T03:45:34.471Z,8.28
2023-03-28T03:46:34.470Z,8.36
2023-03-28T03:47:34.410Z,8.26
2023-03-28T03:48:34.408Z,8.33
2023-03-28T03:49:34.343Z,8.28
2023-03-28T03:50:34.327Z,8.33
2023-03-28T03:51:34.353Z,8.28
2023-03-28T03:52:34.359Z,8.33
2023-03-28T03:53:34.481Z,8.34
2023-03-28T03:54:36.212Z,8.37
2023-03-28T03:55:34.741Z,8.37
2023-03-28T03:56:35.018Z,8.37
2023-03-28T03:57:34.965Z,8.41
2023-03-28T03:58:35.082Z,8.41
2023-03-28T03:59:34.079Z,8.49
2023-03-28T04:00:34.073Z,8.46
2023-03-28T04:01:34.059Z,8.51
2023-03-28T04:02:34.108Z,8.48
2023-03-28T04:03:34.051Z,8.46
2023-03-28T04:04:34.012Z,8.53
2023-03-28T04:05:33.939Z,8.51
2023-03-28T04:06:33.904Z,8.51
2023-03-28T04:07:33.902Z,8.51
2023-03-28T04:08:33.862Z,8.51
2023-03-28T04:09:33.834Z,8.52
2023-03-28T04:10:33.797Z,8.55
2023-03-28T04:11:33.766Z,8.53
2023-03-28T04:12:33.741Z,8.53
2023-03-28T04:13:33.866Z,8.60
2023-03-28T04:14:33.952Z,8.58
2023-03-28T04:15:34.078Z,8.58
2023-03-28T04:16:41.088Z,8.58
2023-03-28T04:17:34.349Z,8.60
2023-03-28T04:18:34.472Z,8.69
2023-03-28T04:19:33.568Z,8.67
2023-03-28T04:20:33.521Z,8.63
2023-03-28T04:21:33.504Z,8.61
2023-03-28T04:22:33.483Z,8.61
2023-03-28T04:23:35.281Z,8.55
2023-03-28T04:24:33.422Z,8.52
2023-03-28T04:25:33.484Z,8.49
2023-03-28T04:26:33.395Z,8.55
2023-03-28T04:27:33.397Z,8.37
2023-03-28T04:28:33.396Z,8.41
2023-03-28T04:29:33.399Z,8.34
2023-03-28T04:30:33.269Z,8.37
2023-03-28T04:31:33.312Z,8.30
2023-03-28T04:32:33.290Z,8.34
2023-03-28T04:33:33.374Z,8.28
2023-03-28T04:34:33.463Z,8.33
2023-03-28T04:35:33.692Z,8.23
2023-03-28T04:36:33.717Z,8.33
2023-03-28T04:37:33.835Z,8.28
2023-03-28T04:38:34.024Z,8.30
2023-03-28T04:39:33.052Z,8.23
2023-03-28T04:40:33.010Z,8.18
2023-03-28T04:41:33.060Z,8.28
2023-03-28T04:42:32.955Z,8.18
2023-03-28T04:43:32.929Z,8.27
2023-03-28T04:44:32.924Z,8.27
2023-03-28T04:45:32.936Z,8.23
2023-03-28T04:46:32.846Z,8.19
2023-03-28T04:47:32.882Z,8.15
2023-03-28T04:48:32.804Z,8.28
2023-03-28T04:49:32.786Z,8.19
2023-03-28T04:50:35.105Z,8.18
2023-03-28T04:51:32.721Z,8.26
2023-03-28T04:52:32.786Z,8.26
2023-03-28T04:53:32.882Z,8.20
2023-03-28T04:54:33.014Z,8.13
2023-03-28T04:55:33.142Z,8.16
2023-03-28T04:56:33.319Z,8.27
2023-03-28T04:57:33.493Z,8.15
2023-03-28T04:58:32.548Z,8.23
2023-03-28T04:59:32.514Z,8.16
2023-03-28T05:00:32.496Z,8.26
2023-03-28T05:01:32.477Z,8.23
2023-03-28T05:02:32.507Z,8.34
2023-03-28T05:03:32.485Z,8.27
2023-03-28T05:04:32.377Z,8.23
2023-03-28T05:05:32.350Z,8.28
2023-03-28T05:06:32.334Z,8.34
2023-03-28T05:07:32.350Z,8.28
2023-03-28T05:08:32.261Z,8.41
2023-03-28T05:09:32.271Z,8.37
2023-03-28T05:10:32.270Z,8.36
2023-03-28T05:11:32.284Z,8.37
2023-03-28T05:12:32.378Z,8.45
2023-03-28T05:13:32.525Z,8.44
2023-03-28T05:14:32.652Z,8.49
2023-03-28T05:15:32.837Z,8.46
2023-03-28T05:16:33.029Z,8.56
2023-03-28T05:17:32.077Z,8.56
2023-03-28T05:18:32.013Z,8.56
2023-03-28T05:19:31.967Z,8.49
2023-03-28T05:20:31.960Z,8.55
2023-03-28T05:21:31.936Z,8.56
2023-03-28T05:22:31.888Z,8.58
2023-03-28T05:23:31.865Z,8.60
2023-03-28T05:24:31.862Z,8.55
2023-03-28T05:25:31.832Z,8.56
2023-03-28T05:26:31.795Z,8.51
2023-03-28T05:27:31.777Z,8.60
2023-03-28T05:28:31.725Z,8.61
2023-03-28T05:29:31.717Z,8.66
2023-03-28T05:30:31.844Z,8.70
2023-03-28T05:31:32.017Z,8.69
2023-03-28T05:32:32.102Z,8.73
2023-03-28T05:33:32.225Z,8.76
2023-03-28T05:34:32.369Z,8.64
2023-03-28T05:35:32.560Z,8.66
2023-03-28T05:36:31.532Z,8.73
2023-03-28T05:37:31.531Z,8.70
2023-03-28T05:38:31.479Z,8.66
2023-03-28T05:39:31.454Z,8.67
2023-03-28T05:40:31.434Z,8.70
2023-03-28T05:41:31.457Z,8.81
2023-03-28T05:42:31.371Z,8.79
2023-03-28T05:43:31.352Z,8.81
2023-03-28T05:44:31.316Z,8.87
2023-03-28T05:45:31.295Z,8.85
2023-03-28T05:46:31.284Z,8.87
2023-03-28T05:47:31.261Z,8.89
2023-03-28T05:48:31.247Z,8.84
2023-03-28T05:49:31.430Z,8.84
2023-03-28T05:50:31.518Z,8.88
2023-03-28T05:51:31.643Z,8.82
2023-03-28T05:52:31.835Z,8.92
2023-03-28T05:53:31.935Z,8.92
2023-03-28T05:54:31.043Z,8.85
2023-03-28T05:55:31.038Z,8.81
2023-03-28T05:56:31.038Z,8.97
2023-03-28T05:57:31.009Z,8.89
2023-03-28T05:58:30.956Z,8.87
2023-03-28T05:59:30.938Z,8.99
2023-03-28T06:00:30.890Z,8.95
2023-03-28T06:01:30.866Z,8.97
2023-03-28T06:02:30.933Z,8.94
2023-03-28T06:03:30.851Z,8.92
2023-03-28T06:04:30.804Z,9.00
2023-03-28T06:05:30.791Z,8.92
2023-03-28T06:06:30.744Z,9.03
2023-03-28T06:07:41.385Z,9.03
2023-03-28T06:08:31.001Z,9.04
2023-03-28T06:09:31.118Z,9.03
2023-03-28T06:10:31.274Z,9.06
2023-03-28T06:11:31.438Z,9.03
2023-03-28T06:12:31.646Z,9.14
2023-03-28T06:13:30.565Z,9.14
2023-03-28T06:14:30.554Z,9.18
2023-03-28T06:15:44.811Z,9.21
2023-03-28T06:19:27.071Z,9.21
2023-03-28T06:20:23.319Z,9.31
2023-03-28T06:21:24.551Z,9.37
2023-03-28T06:22:25.130Z,9.47
2023-03-28T06:23:24.434Z,9.54
2023-03-28T06:24:24.870Z,9.64
2023-03-28T06:25:24.577Z,9.72
2023-03-28T06:26:23.469Z,9.79
2023-03-28T06:27:24.564Z,9.86
2023-03-28T06:28:24.635Z,9.77
2023-03-28T06:29:23.559Z,9.87
2023-03-28T06:30:23.528Z,9.97
2023-03-28T06:31:24.056Z,9.95
2023-03-28T06:32:24.512Z,9.95
2023-03-28T06:33:22.936Z,10.02
2023-03-28T06:34:23.532Z,10.04
2023-03-28T06:35:24.455Z,10.04
2023-03-28T06:36:23.832Z,10.04
2023-03-28T06:37:23.906Z,10.09
2023-03-28T06:38:23.046Z,10.10
2023-03-28T06:39:23.114Z,10.07
2023-03-28T06:40:24.036Z,10.07
2023-03-28T06:41:24.044Z,9.97
2023-03-28T06:42:25.068Z,10.05
2023-03-28T06:43:23.173Z,10.17
2023-03-28T06:44:23.177Z,10.09
2023-03-28T06:45:23.111Z,10.15
2023-03-28T06:46:22.141Z,10.13
2023-03-28T06:47:24.609Z,10.13
2023-03-28T06:48:24.169Z,10.16
2023-03-28T06:49:23.681Z,10.16
2023-03-28T06:50:23.021Z,10.13
2023-03-28T06:51:22.993Z,10.16
2023-03-28T06:52:23.485Z,10.22
2023-03-28T06:53:22.980Z,10.26
2023-03-28T06:54:22.943Z,10.23
2023-03-28T06:55:22.576Z,10.31
2023-03-28T06:56:22.672Z,10.30
2023-03-28T06:57:23.296Z,10.42
2023-03-28T06:58:23.027Z,10.40
2023-03-28T06:59:22.741Z,10.31
2023-03-28T07:00:22.826Z,10.30
2023-03-28T07:01:21.782Z,10.38
2023-03-28T07:02:21.750Z,10.44
2023-03-28T07:03:21.806Z,10.51
2023-03-28T07:04:21.703Z,10.60
2023-03-28T07:05:21.640Z,10.68
2023-03-28T07:06:21.617Z,10.60
2023-03-28T07:07:21.606Z,10.61
2023-03-28T07:08:21.540Z,10.67
2023-03-28T07:09:21.541Z,10.69
2023-03-28T07:10:21.531Z,10.75
2023-03-28T07:11:21.482Z,10.78
2023-03-28T07:12:21.461Z,10.82
2023-03-28T07:13:21.553Z,10.92
2023-03-28T07:14:21.685Z,10.93
2023-03-28T07:15:21.832Z,10.96
2023-03-28T07:17:59.107Z,10.97
2023-03-28T07:19:00.035Z,10.96
2023-03-28T07:21:04.065Z,10.97
2023-03-28T07:22:00.345Z,10.86
2023-03-28T07:23:55.796Z,10.96
2023-03-28T07:24:54.749Z,10.82
2023-03-28T07:27:01.312Z,10.78
2023-03-28T07:27:53.947Z,10.87
2023-03-28T07:29:50.081Z,10.87
2023-03-28T07:30:49.793Z,10.86
2023-03-28T07:32:53.765Z,10.90
2023-03-28T07:33:47.083Z,10.86
2023-03-28T07:35:48.356Z,10.94
2023-03-28T07:36:49.977Z,10.93
2023-03-28T07:38:53.361Z,10.94
2023-03-28T07:39:54.808Z,10.97
2023-03-28T07:41:55.608Z,10.96
2023-03-28T07:42:56.275Z,10.94
2023-03-28T07:44:53.104Z,10.93
2023-03-28T07:45:51.626Z,11.02
2023-03-28T07:47:48.358Z,10.92
2023-03-28T07:48:47.564Z,10.94
2023-03-28T07:50:51.631Z,10.94
2023-03-28T07:51:52.083Z,10.93
2023-03-28T07:53:55.022Z,10.84
2023-03-28T07:54:55.216Z,10.75
2023-03-28T07:56:58.227Z,10.78
2023-03-28T07:57:57.296Z,10.69
2023-03-28T08:00:18.149Z,10.75
2023-03-28T08:01:21.045Z,10.75
2023-03-28T08:02:18.856Z,10.64
2023-03-28T08:03:19.630Z,10.67
2023-03-28T08:04:18.517Z,10.72
2023-03-28T08:05:18.531Z,10.61
2023-03-28T08:06:31.689Z,10.64
2023-03-28T08:07:19.809Z,10.67
2023-03-28T08:08:19.167Z,10.67
2023-03-28T08:09:18.914Z,10.72
2023-03-28T08:10:20.021Z,10.72
2023-03-28T08:11:19.594Z,10.72
2023-03-28T08:12:18.722Z,10.69
2023-03-28T08:13:19.526Z,10.78
2023-03-28T08:14:21.330Z,10.94
2023-03-28T08:15:19.950Z,11.04
2023-03-28T08:16:19.863Z,11.02
2023-03-28T08:17:18.680Z,11.11
2023-03-28T08:18:19.221Z,11.25
2023-03-28T08:19:18.638Z,11.29
2023-03-28T08:20:18.785Z,11.45
2023-03-28T08:21:18.223Z,11.55
2023-03-28T08:22:18.070Z,11.70
2023-03-28T08:23:18.847Z,11.87
2023-03-28T08:24:28.850Z,11.87
2023-03-28T08:25:17.929Z,11.94
2023-03-28T08:26:17.477Z,11.97
2023-03-28T08:27:17.449Z,12.04
2023-03-28T08:28:17.432Z,12.03
2023-03-28T08:29:17.568Z,12.06
2023-03-28T08:30:17.732Z,12.06
2023-03-28T08:32:18.123Z,12.06
2023-03-28T08:33:18.291Z,12.17
2023-03-28T08:34:18.451Z,12.15
2023-03-28T08:35:18.350Z,12.15
2023-03-28T08:36:18.736Z,12.17
2023-03-28T08:37:19.361Z,12.10
2023-03-28T08:38:38.330Z,12.03
2023-03-28T08:39:17.304Z,12.09
2023-03-28T08:40:17.286Z,12.02
2023-03-28T08:41:17.231Z,11.90
2023-03-28T08:42:19.346Z,12.02
2023-03-28T08:43:17.183Z,11.97
2023-03-28T08:44:38.182Z,12.03
2023-03-28T08:45:17.146Z,12.02
2023-03-28T08:46:17.343Z,12.10
2023-03-28T08:47:17.306Z,12.15
2023-03-28T08:48:17.436Z,12.15
2023-03-28T08:49:17.555Z,12.25
2023-03-28T08:50:39.158Z,12.24
2023-03-28T08:51:17.808Z,12.22
2023-03-28T08:52:17.958Z,12.31
2023-03-28T08:53:17.951Z,12.36
2023-03-28T08:54:16.965Z,12.32
2023-03-28T08:55:16.912Z,12.36
2023-03-28T08:56:37.919Z,12.42
2023-03-28T08:57:16.902Z,12.31
2023-03-28T08:58:16.873Z,12.39
2023-03-28T08:59:16.944Z,12.36
2023-03-28T09:00:16.971Z,12.37
2023-03-28T09:01:16.884Z,12.36
2023-03-28T09:02:38.114Z,12.37
2023-03-28T09:03:41.694Z,12.42
2023-03-28T09:04:22.189Z,12.39
2023-03-28T09:06:31.963Z,12.43
2023-03-28T09:07:38.997Z,12.49
2023-03-28T09:08:19.254Z,12.35
2023-03-28T09:09:17.412Z,12.37
2023-03-28T09:10:17.491Z,12.43
2023-03-28T09:11:17.721Z,12.39
2023-03-28T09:12:18.442Z,12.43
2023-03-28T09:13:37.583Z,12.39
2023-03-28T09:14:16.572Z,12.37
2023-03-28T09:15:16.571Z,12.39
2023-03-28T09:16:16.583Z,12.47
2023-03-28T09:17:18.581Z,12.46
2023-03-28T09:18:16.454Z,12.50
2023-03-28T09:19:45.286Z,12.61
2023-03-28T09:20:16.417Z,12.72
2023-03-28T09:21:19.156Z,12.91
2023-03-28T09:22:16.366Z,12.90
2023-03-28T09:23:16.283Z,13.05
2023-03-28T09:24:16.268Z,13.11
2023-03-28T09:25:37.493Z,13.20
2023-03-28T09:26:16.642Z,13.20
2023-03-28T09:27:17.475Z,13.37
2023-03-28T09:28:17.183Z,13.52
2023-03-28T09:29:17.900Z,13.65
2023-03-28T09:30:18.735Z,13.89
2023-03-28T09:31:38.136Z,14.04
2023-03-28T09:32:16.098Z,14.14
2023-03-28T09:33:16.027Z,14.26
2023-03-28T09:34:16.036Z,14.25
2023-03-28T09:35:17.677Z,14.28
2023-03-28T09:36:15.995Z,14.26
2023-03-28T09:37:36.930Z,14.11
2023-03-28T09:38:15.908Z,14.03
2023-03-28T09:39:15.890Z,13.96
2023-03-28T09:40:15.871Z,13.83
2023-03-28T09:41:15.884Z,13.62
2023-03-28T09:42:16.647Z,13.46
2023-03-28T09:43:37.965Z,13.31
2023-03-28T09:44:16.194Z,13.23
2023-03-28T09:45:16.203Z,13.12
2023-03-28T09:46:16.353Z,13.08
2023-03-28T09:47:16.594Z,12.97
2023-03-28T09:48:19.016Z,12.85
2023-03-28T09:49:37.824Z,12.73
2023-03-28T09:50:16.668Z,12.50
2023-03-28T09:51:15.686Z,12.36
2023-03-28T09:52:15.593Z,12.35
2023-03-28T09:53:17.182Z,12.21
2023-03-28T09:54:15.622Z,12.27
2023-03-28T09:55:36.604Z,12.18
2023-03-28T09:56:15.540Z,12.20
2023-03-28T09:57:15.596Z,12.15
2023-03-28T09:58:15.987Z,12.13
2023-03-28T09:59:16.414Z,12.17
2023-03-28T10:00:15.548Z,12.15
2023-03-28T10:01:36.617Z,12.03
2023-03-28T10:02:15.593Z,12.09
2023-03-28T10:03:15.761Z,12.07
2023-03-28T10:04:15.880Z,12.07
2023-03-28T10:05:16.024Z,12.04
2023-03-28T10:06:16.150Z,12.04
2023-03-28T10:07:37.278Z,11.97
2023-03-28T10:08:16.395Z,11.97
2023-03-28T10:09:16.360Z,11.97
2023-03-28T10:10:16.626Z,12.02
2023-03-28T10:11:19.569Z,11.94
2023-03-28T10:12:17.519Z,12.06
2023-03-28T10:13:38.153Z,12.10
2023-03-28T10:14:15.280Z,12.04
2023-03-28T10:16:15.450Z,12.15
2023-03-28T10:17:18.605Z,12.13
2023-03-28T10:18:15.493Z,12.17
2023-03-28T10:19:37.275Z,12.15
2023-03-28T10:20:19.057Z,12.10
2023-03-28T10:21:39.046Z,12.10
2023-03-28T10:22:15.573Z,12.07
2023-03-28T10:23:18.553Z,11.99
2023-03-28T10:24:36.818Z,11.97
2023-03-28T10:25:15.995Z,12.02
2023-03-28T10:26:37.107Z,11.94
2023-03-28T10:27:16.063Z,11.90
2023-03-28T10:28:15.959Z,11.91
2023-03-28T10:29:37.167Z,11.90
2023-03-28T10:30:16.066Z,11.83
2023-03-28T10:31:36.104Z,11.73
2023-03-28T10:32:16.578Z,11.77
2023-03-28T10:33:14.998Z,11.73
2023-03-28T10:34:35.860Z,11.75
2023-03-28T10:35:15.507Z,11.78
2023-03-28T10:36:35.953Z,11.75
2023-03-28T10:37:14.885Z,11.80
2023-03-28T10:38:15.529Z,11.78
2023-03-28T10:39:36.030Z,11.72
2023-03-28T10:40:15.295Z,11.91
2023-03-28T10:41:36.492Z,11.94
2023-03-28T10:42:16.214Z,11.88
2023-03-28T10:44:57.772Z,12.07
2023-03-28T10:45:58.271Z,12.17
2023-03-28T10:48:00.100Z,12.28
2023-03-28T10:49:00.147Z,12.35
2023-03-28T10:51:02.360Z,12.45
2023-03-28T10:52:00.926Z,12.43
2023-03-28T10:54:01.900Z,12.55
2023-03-28T10:55:00.473Z,12.55
2023-03-28T10:56:58.736Z,12.60
2023-03-28T10:57:58.125Z,12.67
2023-03-28T11:00:02.723Z,12.75
2023-03-28T11:01:03.044Z,12.73
2023-03-28T11:02:58.663Z,12.86
2023-03-28T11:03:56.120Z,12.90
2023-03-28T11:06:08.027Z,12.83
2023-03-28T11:06:55.770Z,12.94
2023-03-28T11:08:59.632Z,13.08
2023-03-28T11:09:58.680Z,13.09
2023-03-28T11:11:59.742Z,13.00
2023-03-28T11:12:59.876Z,12.94
2023-03-28T11:15:03.965Z,12.93
2023-03-28T11:16:04.474Z,12.85
2023-03-28T11:17:58.271Z,12.83
2023-03-28T11:18:58.384Z,12.87
2023-03-28T11:21:01.997Z,12.85
2023-03-28T11:22:02.170Z,12.78
2023-03-28T11:24:06.078Z,12.98
2023-03-28T11:25:05.160Z,13.01
2023-03-28T11:27:15.533Z,13.22
2023-03-28T11:28:10.405Z,13.38
2023-03-28T11:30:11.369Z,13.68
2023-03-28T11:31:10.256Z,13.75
2023-03-28T11:33:09.289Z,13.85
2023-03-28T11:34:09.079Z,14.03
2023-03-28T11:36:08.617Z,14.12
2023-03-28T11:37:07.010Z,14.20
2023-03-28T11:39:11.777Z,14.17
2023-03-28T11:40:12.149Z,14.20
2023-03-28T11:42:14.352Z,14.41
2023-03-28T11:43:15.409Z,14.33
2023-03-28T11:45:14.173Z,14.43
2023-03-28T11:46:15.121Z,14.50
2023-03-28T11:48:14.054Z,14.63
2023-03-28T11:49:16.084Z,14.58
2023-03-28T11:51:14.880Z,14.59
2023-03-28T11:52:15.388Z,14.48
2023-03-28T11:54:14.294Z,14.29
2023-03-28T11:55:14.547Z,14.23
2023-03-28T11:57:19.042Z,14.18
2023-03-28T11:58:18.610Z,14.14
2023-03-28T12:00:32.069Z,13.99
2023-03-28T12:01:16.072Z,13.93
2023-03-28T12:03:19.057Z,13.77
2023-03-28T12:04:18.880Z,13.63
2023-03-28T12:06:23.438Z,13.49
2023-03-28T12:07:22.701Z,13.35
2023-03-28T12:09:20.554Z,13.19
2023-03-28T12:10:18.232Z,13.15
2023-03-28T12:12:20.767Z,13.13
2023-03-28T12:13:19.197Z,13.11
2023-03-28T12:15:18.215Z,13.05
2023-03-28T12:16:18.180Z,13.16
2023-03-28T12:18:21.927Z,13.18
2023-03-28T12:19:22.000Z,13.05
2023-03-28T12:21:24.208Z,13.04
2023-03-28T12:22:24.747Z,13.11
2023-03-28T12:24:24.717Z,13.19
2023-03-28T12:25:25.615Z,13.19
2023-03-28T12:27:30.142Z,13.12
2023-03-28T12:28:30.227Z,13.18
2023-03-28T12:30:33.113Z,13.08
2023-03-28T12:31:33.526Z,13.18
2023-03-28T12:33:35.909Z,13.18
2023-03-28T12:34:36.469Z,13.19
2023-03-28T12:36:36.846Z,13.30
2023-03-28T12:37:38.531Z,13.41
2023-03-28T12:39:40.126Z,13.49
2023-03-28T12:40:40.741Z,13.57
2023-03-28T12:42:44.301Z,13.56
2023-03-28T12:43:44.764Z,13.70
2023-03-28T12:44:45.848Z,13.67
2023-03-28T12:45:44.768Z,13.59
2023-03-28T12:46:44.745Z,13.62
2023-03-28T12:47:43.766Z,13.59
2023-03-28T12:48:44.127Z,13.60
2023-03-28T12:49:43.715Z,13.63
2023-03-28T12:50:44.666Z,13.63
2023-03-28T12:51:45.560Z,13.56
2023-03-28T12:52:44.556Z,13.62
2023-03-28T12:53:45.087Z,13.57
2023-03-28T12:54:45.028Z,13.57
2023-03-28T12:55:45.043Z,13.49
2023-03-28T12:56:44.170Z,13.47
2023-03-28T12:57:44.516Z,13.49
2023-03-28T12:58:43.961Z,13.46
2023-03-28T12:59:43.945Z,13.38
2023-03-28T13:00:44.887Z,13.38
2023-03-28T13:01:44.416Z,13.33
2023-03-28T13:02:44.394Z,13.33
2023-03-28T13:03:44.320Z,13.23
2023-03-28T13:04:44.609Z,13.22
2023-03-28T13:05:44.566Z,13.12
2023-03-28T13:06:44.285Z,13.22
2023-03-28T13:07:45.341Z,13.22
2023-03-28T13:08:44.765Z,13.22
2023-03-28T13:09:46.591Z,13.16
2023-03-28T13:10:43.224Z,13.12
2023-03-28T13:11:44.179Z,13.23
2023-03-28T13:12:45.140Z,13.15
2023-03-28T13:13:44.075Z,13.12
2023-03-28T13:14:43.592Z,13.16
2023-03-28T13:15:43.756Z,13.15
2023-03-28T13:16:44.568Z,13.03
2023-03-28T13:17:43.546Z,13.04
2023-03-28T13:18:43.511Z,13.05
2023-03-28T13:19:43.986Z,13.05
2023-03-28T13:20:44.499Z,13.04
2023-03-28T13:21:44.986Z,12.98
2023-03-28T13:22:44.445Z,12.94
2023-03-28T13:23:44.106Z,12.93
2023-03-28T13:24:43.205Z,12.87
2023-03-28T13:25:42.849Z,12.80
2023-03-28T13:26:42.820Z,12.85
2023-03-28T13:27:42.804Z,12.82
2023-03-28T13:28:42.782Z,12.85
2023-03-28T13:29:42.746Z,12.72
2023-03-28T13:30:42.748Z,12.70
2023-03-28T13:31:42.778Z,12.67
2023-03-28T13:32:42.698Z,12.60
2023-03-28T13:33:44.773Z,12.54
2023-03-28T13:34:42.641Z,12.46
2023-03-28T13:35:42.676Z,12.53
2023-03-28T13:36:42.585Z,12.53
2023-03-28T13:37:42.585Z,12.46
2023-03-28T13:38:42.529Z,12.40
2023-03-28T13:39:42.513Z,12.37
2023-03-28T13:40:42.484Z,12.37
2023-03-28T13:41:42.497Z,12.29
2023-03-28T13:42:42.429Z,12.35
2023-03-28T13:43:43.575Z,12.28
2023-03-28T13:44:42.401Z,12.22
2023-03-28T13:45:42.372Z,12.31
2023-03-28T13:46:42.358Z,12.22
2023-03-28T13:47:42.394Z,12.24
2023-03-28T13:48:42.289Z,12.28
2023-03-28T13:49:42.271Z,12.28
2023-03-28T13:50:42.257Z,12.22
2023-03-28T13:51:42.284Z,12.31
2023-03-28T13:52:42.198Z,12.35
2023-03-28T13:53:48.108Z,12.39
2023-03-28T13:54:42.174Z,12.45
2023-03-28T13:55:42.142Z,12.29
2023-03-28T13:56:42.153Z,12.40
2023-03-28T13:57:42.126Z,12.45
2023-03-28T13:58:42.080Z,12.49
2023-03-28T13:59:42.030Z,12.47
2023-03-28T14:00:42.030Z,12.50
2023-03-28T14:01:42.051Z,12.47
2023-03-28T14:02:42.090Z,12.50
2023-03-28T14:03:44.128Z,12.60
2023-03-28T14:04:41.944Z,12.46
2023-03-28T14:05:41.894Z,12.50
2023-03-28T14:06:41.867Z,12.50
2023-03-28T14:07:41.860Z,12.55
2023-03-28T14:08:41.879Z,12.55